Hutchinson Municipal Airport
KHUT : now visible

Airfield :











YOU CAN JOIN US ON...

 
LOGIN :

Register | Disclaimer

   EN    FR    IT 

 









Legend :    VFR   Marginal VFR   IFR   Intensive IFR   Very Intensive IFR
Visi :
Ceiling :
>= 8 km
>= 3000ft
5 to 8 km
1000 to 3000 ft
1500m to 5 km
500 to 1000 ft
800 to 1500m
200 to 500 ft
< 800m
< 200 ft
Symbols :   Thunderstorms  Fog  Heavy snow  Heavy precipitations  Wind > 20 kt






- Airport Elevation : 1543 ft


KHUT - Hutchinson Municipal

CURRENT METAR :
  • 181052Z AUTO 32021G32KT 10SM FEW019 00/M04 A3013 RMK AO2 PK WND 31040/1008 PRESRR SLP206 T00001044

EXPIRED METARs :
  • 181025Z AUTO 33021G31KT 10SM SCT019 01/M03 A3010 RMK AO2 PK WND 31040/1008 T00111033
  • 180952Z AUTO 33026G39KT 10SM OVC019 03/M01 A3007 RMK AO2 PK WND 31039/0949 SLP186 T00281006
  • 180929Z AUTO 32021G35KT 10SM BKN022 OVC031 03/00 A3005 RMK AO2 PK WND 32035/0923 T00330000
  • 180852Z AUTO 31019G29KT 10SM CLR 03/00 A3000 RMK AO2 PK WND 31029/0847 PRESRR SLP162 T00330000 53057

TAF KHUT
Valid from the 18 at 06:00 until the 19 at 06:00 UTC


180538Z 1806/1906 25015G23KT P6SM VCSH BKN025
TEMPO 1806/1808 5SM BR BKN010
FM180830 33022G31KT P6SM SCT010 BKN035
FM181400 34016G26KT P6SM SKC
FM190000 28007KT P6SM SCT250



MET'MAP, your aeronautical weather chart ! - Copyright ORBIFLY December 2007 - Disclaimer

ORBIFLY MET'MAP TEAM :

Programming & Development : Alexandra Zaïnal
Concept & original design : Baudouin d'Aumeries
Assistance for programming : Marc-Olivier Méhu
Technical & hardware support : Manuel Goepfert

Contact : metmap@orbifly.com




SOURCES & CREDITS :

   NOAA       Earth
Advisory